M I D A S
Marine Information and Data Acquisition System
Tripno 1531 of the Zeeleeuw from 2008-08-04 08:20:09 to 2008-08-04 14:43:14
Back to CruiseResearch ActivitiesStationsMapUnderway DataData graphs

EquipmentUnitsComments
TimeDGPSUTC
LatitudeDGPSDM.mWGS84
LongitudeDGPSDM.mWGS84
SpeedMeteo Stationm/sRelative wind speed
DirectionMeteo StationdegRelative wind direction
TemperatureMeteo Stationdeg CelciusAir temperature
PressureMeteo StationPaAtmospheric pressure
HumidityMeteo Station%Relative humidity
Missing or incorrect values are displayed as -999
Metereological data collected by the RV Zeeleeuw from 2008-08-04 08:22:21 to 2008-08-04 14:46:13
                                                                                    Next 1000 lines
Time Latitude Longitude Speed Direction Temperature Pressure Humidity
2008-08-04 08:22:31 51°13.624 2°56.045 -999 -999 -999 -999 -999
2008-08-04 08:22:36 51°13.624 2°56.044 -999 -999 -999 -999 -999
2008-08-04 08:22:41 51°13.625 2°56.041 -999 -999 -999 -999 -999
2008-08-04 08:22:46 51°13.626 2°56.038 -999 -999 -999 -999 -999
2008-08-04 08:22:51 51°13.627 2°56.035 -999 -999 -999 -999 -999
2008-08-04 08:22:56 51°13.629 2°56.03 -999 -999 -999 -999 -999
2008-08-04 08:23:01 51°13.631 2°56.025 -999 -999 -999 -999 -999
2008-08-04 08:23:06 51°13.632 2°56.019 -999 -999 -999 -999 -999
2008-08-04 08:23:11 51°13.634 2°56.013 -999 -999 -999 -999 -999
2008-08-04 08:23:16 51°13.636 2°56.006 -999 -999 -999 -999 -999
2008-08-04 08:23:21 51°13.638 2°55.999 -999 -999 -999 -999 -999
2008-08-04 08:23:26 51°13.64 2°55.992 -999 -999 -999 -999 -999
2008-08-04 08:23:31 51°13.643 2°55.984 -999 -999 -999 -999 -999
2008-08-04 08:23:36 51°13.645 2°55.976 -999 -999 -999 -999 -999
2008-08-04 08:23:41 51°13.648 2°55.968 -999 -999 -999 -999 -999
2008-08-04 08:23:46 51°13.65 2°55.959 -999 -999 -999 -999 -999
2008-08-04 08:23:51 51°13.652 2°55.951 -999 -999 -999 -999 -999
2008-08-04 08:23:56 51°13.655 2°55.942 -999 -999 -999 -999 -999
2008-08-04 08:24:01 51°13.657 2°55.933 -999 -999 -999 -999 -999
2008-08-04 08:24:06 51°13.659 2°55.925 -999 -999 -999 -999 -999
2008-08-04 08:24:11 51°13.662 2°55.916 -999 -999 -999 -999 -999
2008-08-04 08:24:16 51°13.664 2°55.908 -999 -999 -999 -999 -999
2008-08-04 08:24:21 51°13.666 2°55.899 -999 -999 -999 -999 -999
2008-08-04 08:24:26 51°13.668 2°55.891 -999 -999 -999 -999 -999
2008-08-04 08:24:31 51°13.67 2°55.883 -999 -999 -999 -999 -999
2008-08-04 08:24:36 51°13.672 2°55.875 -999 -999 -999 -999 -999
2008-08-04 08:24:41 51°13.674 2°55.867 -999 -999 -999 -999 -999
2008-08-04 08:24:46 51°13.676 2°55.86 -999 -999 -999 -999 -999
2008-08-04 08:24:51 51°13.678 2°55.852 -999 -999 -999 -999 -999
2008-08-04 08:24:56 51°13.68 2°55.845 -999 -999 -999 -999 -999
2008-08-04 08:25:01 51°13.681 2°55.839 -999 -999 -999 -999 -999
2008-08-04 08:25:06 51°13.682 2°55.832 -999 -999 -999 -999 -999
2008-08-04 08:25:11 51°13.684 2°55.826 -999 -999 -999 -999 -999
2008-08-04 08:25:16 51°13.685 2°55.82 -999 -999 -999 -999 -999
2008-08-04 08:25:21 51°13.686 2°55.814 -999 -999 -999 -999 -999
2008-08-04 08:25:26 51°13.687 2°55.808 -999 -999 -999 -999 -999
2008-08-04 08:25:31 51°13.687 2°55.802 -999 -999 -999 -999 -999
2008-08-04 08:25:36 51°13.688 2°55.797 -999 -999 -999 -999 -999
2008-08-04 08:25:41 51°13.689 2°55.792 -999 -999 -999 -999 -999
2008-08-04 08:25:46 51°13.689 2°55.788 -999 -999 -999 -999 -999
2008-08-04 08:25:51 51°13.689 2°55.783 -999 -999 -999 -999 -999
2008-08-04 08:25:56 51°13.69 2°55.78 -999 -999 -999 -999 -999
2008-08-04 08:26:01 51°13.69 2°55.776 -999 -999 -999 -999 -999
2008-08-04 08:26:06 51°13.69 2°55.773 -999 -999 -999 -999 -999
2008-08-04 08:26:11 51°13.69 2°55.77 -999 -999 -999 -999 -999
2008-08-04 08:26:16 51°13.69 2°55.767 -999 -999 -999 -999 -999
2008-08-04 08:26:21 51°13.691 2°55.764 -999 -999 -999 -999 -999
2008-08-04 08:26:26 51°13.691 2°55.762 -999 -999 -999 -999 -999
2008-08-04 08:26:31 51°13.691 2°55.761 -999 -999 -999 -999 -999
2008-08-04 08:26:36 51°13.691 2°55.76 -999 -999 -999 -999 -999
2008-08-04 08:26:41 51°13.692 2°55.759 -999 -999 -999 -999 -999
2008-08-04 08:26:46 51°13.692 2°55.758 -999 -999 -999 -999 -999
2008-08-04 08:26:51 51°13.693 2°55.759 -999 -999 -999 -999 -999
2008-08-04 08:26:56 51°13.694 2°55.759 -999 -999 -999 -999 -999
2008-08-04 08:27:01 51°13.694 2°55.761 -999 -999 -999 -999 -999
2008-08-04 08:27:06 51°13.695 2°55.762 -999 -999 -999 -999 -999
2008-08-04 08:27:11 51°13.696 2°55.763 -999 -999 -999 -999 -999
2008-08-04 08:27:16 51°13.698 2°55.765 -999 -999 -999 -999 -999
2008-08-04 08:27:21 51°13.7 2°55.767 -999 -999 -999 -999 -999
2008-08-04 08:27:26 51°13.702 2°55.768 -999 -999 -999 -999 -999
2008-08-04 08:27:31 51°13.704 2°55.769 -999 -999 -999 -999 -999
2008-08-04 08:27:36 51°13.705 2°55.77 -999 -999 -999 -999 -999
2008-08-04 08:27:41 51°13.706 2°55.77 -999 -999 -999 -999 -999
2008-08-04 08:27:46 51°13.707 2°55.769 -999 -999 -999 -999 -999
2008-08-04 08:27:51 51°13.707 2°55.769 -999 -999 -999 -999 -999
2008-08-04 08:27:56 51°13.707 2°55.767 -999 -999 -999 -999 -999
2008-08-04 08:28:01 51°13.706 2°55.766 -999 -999 -999 -999 -999
2008-08-04 08:28:06 51°13.704 2°55.766 -999 -999 -999 -999 -999
2008-08-04 08:28:11 51°13.702 2°55.764 -999 -999 -999 -999 -999
2008-08-04 08:28:16 51°13.7 2°55.763 -999 -999 -999 -999 -999
2008-08-04 08:28:21 51°13.698 2°55.761 -999 -999 -999 -999 -999
2008-08-04 08:28:26 51°13.696 2°55.76 -999 -999 -999 -999 -999
2008-08-04 08:28:31 51°13.695 2°55.759 -999 -999 -999 -999 -999
2008-08-04 08:28:36 51°13.693 2°55.758 -999 -999 -999 -999 -999
2008-08-04 08:28:41 51°13.693 2°55.757 -999 -999 -999 -999 -999
2008-08-04 08:28:46 51°13.693 2°55.757 -999 -999 -999 -999 -999
2008-08-04 08:28:51 51°13.693 2°55.756 -999 -999 -999 -999 -999
2008-08-04 08:28:55 51°13.694 2°55.756 -999 -999 -999 -999 -999
2008-08-04 08:29:01 51°13.695 2°55.755 -999 -999 -999 -999 -999
2008-08-04 08:29:06 51°13.697 2°55.755 -999 -999 -999 -999 -999
2008-08-04 08:29:11 51°13.699 2°55.754 -999 -999 -999 -999 -999
2008-08-04 08:29:16 51°13.701 2°55.752 -999 -999 -999 -999 -999
2008-08-04 08:29:21 51°13.703 2°55.751 -999 -999 -999 -999 -999
2008-08-04 08:29:26 51°13.706 2°55.748 -999 -999 -999 -999 -999
2008-08-04 08:29:31 51°13.709 2°55.745 -999 -999 -999 -999 -999
2008-08-04 08:29:36 51°13.712 2°55.742 -999 -999 -999 -999 -999
2008-08-04 08:29:41 51°13.716 2°55.738 -999 -999 -999 -999 -999
2008-08-04 08:29:46 51°13.72 2°55.734 -999 -999 -999 -999 -999
2008-08-04 08:29:51 51°13.724 2°55.729 -999 -999 -999 -999 -999
2008-08-04 08:29:56 51°13.729 2°55.724 -999 -999 -999 -999 -999
2008-08-04 08:30:01 51°13.734 2°55.719 -999 -999 -999 -999 -999
2008-08-04 08:30:06 51°13.74 2°55.713 -999 -999 -999 -999 -999
2008-08-04 08:30:11 51°13.746 2°55.708 -999 -999 -999 -999 -999
2008-08-04 08:30:16 51°13.752 2°55.702 -999 -999 -999 -999 -999
2008-08-04 08:30:21 51°13.758 2°55.696 -999 -999 -999 -999 -999
2008-08-04 08:30:26 51°13.764 2°55.689 -999 -999 -999 -999 -999
2008-08-04 08:30:31 51°13.771 2°55.682 -999 -999 -999 -999 -999
2008-08-04 08:30:36 51°13.779 2°55.675 -999 -999 -999 -999 -999
2008-08-04 08:30:41 51°13.788 2°55.667 -999 -999 -999 -999 -999
2008-08-04 08:30:46 51°13.797 2°55.66 -999 -999 -999 -999 -999
2008-08-04 08:30:51 51°13.807 2°55.652 -999 -999 -999 -999 -999
2008-08-04 08:30:56 51°13.817 2°55.644 -999 -999 -999 -999 -999
2008-08-04 08:31:01 51°13.827 2°55.636 -999 -999 -999 -999 -999
2008-08-04 08:31:06 51°13.838 2°55.628 -999 -999 -999 -999 -999
2008-08-04 08:31:11 51°13.848 2°55.619 -999 -999 -999 -999 -999
2008-08-04 08:31:16 51°13.859 2°55.611 -999 -999 -999 -999 -999
2008-08-04 08:31:21 51°13.87 2°55.603 -999 -999 -999 -999 -999
2008-08-04 08:31:26 51°13.882 2°55.595 -999 -999 -999 -999 -999
2008-08-04 08:31:31 51°13.893 2°55.587 -999 -999 -999 -999 -999
2008-08-04 08:31:36 51°13.905 2°55.579 -999 -999 -999 -999 -999
2008-08-04 08:31:41 51°13.916 2°55.57 -999 -999 -999 -999 -999
2008-08-04 08:31:46 51°13.927 2°55.561 -999 -999 -999 -999 -999
2008-08-04 08:31:51 51°13.939 2°55.553 -999 -999 -999 -999 -999
2008-08-04 08:31:56 51°13.95 2°55.545 -999 -999 -999 -999 -999
2008-08-04 08:32:01 51°13.962 2°55.536 -999 -999 -999 -999 -999
2008-08-04 08:32:06 51°13.974 2°55.527 -999 -999 -999 -999 -999
2008-08-04 08:32:11 51°13.985 2°55.519 -999 -999 -999 -999 -999
2008-08-04 08:32:16 51°13.997 2°55.51 -999 -999 -999 -999 -999
2008-08-04 08:32:21 51°14.008 2°55.501 -999 -999 -999 -999 -999
2008-08-04 08:32:26 51°14.02 2°55.493 -999 -999 -999 -999 -999
2008-08-04 08:32:31 51°14.031 2°55.484 -999 -999 -999 -999 -999
2008-08-04 08:32:36 51°14.043 2°55.476 -999 -999 -999 -999 -999
2008-08-04 08:32:41 51°14.055 2°55.468 -999 -999 -999 -999 -999
2008-08-04 08:32:46 51°14.066 2°55.459 -999 -999 -999 -999 -999
2008-08-04 08:32:51 51°14.078 2°55.45 -999 -999 -999 -999 -999
2008-08-04 08:32:56 51°14.089 2°55.441 -999 -999 -999 -999 -999
2008-08-04 08:33:01 51°14.101 2°55.433 -999 -999 -999 -999 -999
2008-08-04 08:33:06 51°14.112 2°55.425 -999 -999 -999 -999 -999
2008-08-04 08:33:11 51°14.123 2°55.417 -999 -999 -999 -999 -999
2008-08-04 08:33:16 51°14.133 2°55.41 -999 -999 -999 -999 -999
2008-08-04 08:33:21 51°14.144 2°55.402 -999 -999 -999 -999 -999
2008-08-04 08:33:26 51°14.153 2°55.395 -999 -999 -999 -999 -999
2008-08-04 08:33:31 51°14.163 2°55.387 -999 -999 -999 -999 -999
2008-08-04 08:33:36 51°14.172 2°55.38 -999 -999 -999 -999 -999
2008-08-04 08:33:41 51°14.181 2°55.372 -999 -999 -999 -999 -999
2008-08-04 08:33:46 51°14.19 2°55.365 -999 -999 -999 -999 -999
2008-08-04 08:33:51 51°14.198 2°55.358 -999 -999 -999 -999 -999
2008-08-04 08:33:56 51°14.207 2°55.35 -999 -999 -999 -999 -999
2008-08-04 08:34:01 51°14.215 2°55.342 -999 -999 -999 -999 -999
2008-08-04 08:34:06 51°14.223 2°55.335 -999 -999 -999 -999 -999
2008-08-04 08:34:11 51°14.231 2°55.327 -999 -999 -999 -999 -999
2008-08-04 08:34:16 51°14.238 2°55.318 -999 -999 -999 -999 -999
2008-08-04 08:34:21 51°14.245 2°55.31 -999 -999 -999 -999 -999
2008-08-04 08:34:26 51°14.253 2°55.301 -999 -999 -999 -999 -999
2008-08-04 08:34:31 51°14.259 2°55.292 -999 -999 -999 -999 -999
2008-08-04 08:34:36 51°14.266 2°55.282 -999 -999 -999 -999 -999
2008-08-04 08:34:41 51°14.273 2°55.273 -999 -999 -999 -999 -999
2008-08-04 08:34:46 51°14.28 2°55.263 -999 -999 -999 -999 -999
2008-08-04 08:34:51 51°14.286 2°55.252 -999 -999 -999 -999 -999
2008-08-04 08:34:56 51°14.293 2°55.241 -999 -999 -999 -999 -999
2008-08-04 08:35:01 51°14.299 2°55.229 -999 -999 -999 -999 -999
2008-08-04 08:35:06 51°14.305 2°55.218 -999 -999 -999 -999 -999
2008-08-04 08:35:11 51°14.312 2°55.205 -999 -999 -999 -999 -999
2008-08-04 08:35:16 51°14.318 2°55.193 -999 -999 -999 -999 -999
2008-08-04 08:35:21 51°14.324 2°55.179 -999 -999 -999 -999 -999
2008-08-04 08:35:26 51°14.329 2°55.166 -999 -999 -999 -999 -999
2008-08-04 08:35:31 51°14.335 2°55.152 -999 -999 -999 -999 -999
2008-08-04 08:35:36 51°14.341 2°55.137 -999 -999 -999 -999 -999
2008-08-04 08:35:41 51°14.347 2°55.121 -999 -999 -999 -999 -999
2008-08-04 08:35:46 51°14.354 2°55.105 -999 -999 -999 -999 -999
2008-08-04 08:35:51 51°14.36 2°55.088 -999 -999 -999 -999 -999
2008-08-04 08:35:56 51°14.367 2°55.07 -999 -999 -999 -999 -999
2008-08-04 08:36:01 51°14.374 2°55.052 -999 -999 -999 -999 -999
2008-08-04 08:36:06 51°14.381 2°55.034 -999 -999 -999 -999 -999
2008-08-04 08:36:11 51°14.389 2°55.016 -999 -999 -999 -999 -999
2008-08-04 08:36:16 51°14.397 2°54.998 -999 -999 -999 -999 -999
2008-08-04 08:36:21 51°14.405 2°54.98 -999 -999 -999 -999 -999
2008-08-04 08:36:26 51°14.414 2°54.962 -999 -999 -999 -999 -999
2008-08-04 08:36:31 51°14.423 2°54.944 -999 -999 -999 -999 -999
2008-08-04 08:36:36 51°14.432 2°54.926 -999 -999 -999 -999 -999
2008-08-04 08:36:41 51°14.442 2°54.908 -999 -999 -999 -999 -999
2008-08-04 08:36:46 51°14.452 2°54.892 -999 -999 -999 -999 -999
2008-08-04 08:36:51 51°14.462 2°54.875 -999 -999 -999 -999 -999
2008-08-04 08:36:56 51°14.473 2°54.86 -999 -999 -999 -999 -999
2008-08-04 08:37:01 51°14.485 2°54.846 -999 -999 -999 -999 -999
2008-08-04 08:37:06 51°14.498 2°54.833 -999 -999 -999 -999 -999
2008-08-04 08:37:11 51°14.511 2°54.823 -999 -999 -999 -999 -999
2008-08-04 08:37:16 51°14.524 2°54.813 -999 -999 -999 -999 -999
2008-08-04 08:37:21 51°14.538 2°54.803 -999 -999 -999 -999 -999
2008-08-04 08:37:26 51°14.552 2°54.795 -999 -999 -999 -999 -999
2008-08-04 08:37:31 51°14.566 2°54.786 -999 -999 -999 -999 -999
2008-08-04 08:37:36 51°14.579 2°54.777 -999 -999 -999 -999 -999
2008-08-04 08:37:41 51°14.593 2°54.768 -999 -999 -999 -999 -999
2008-08-04 08:37:46 51°14.607 2°54.76 -999 -999 -999 -999 -999
2008-08-04 08:37:51 51°14.621 2°54.754 -999 -999 -999 -999 -999
2008-08-04 08:37:56 51°14.635 2°54.746 -999 -999 -999 -999 -999
2008-08-04 08:38:01 51°14.649 2°54.74 -999 -999 -999 -999 -999
2008-08-04 08:38:06 51°14.664 2°54.733 -999 -999 -999 -999 -999
2008-08-04 08:38:11 51°14.678 2°54.727 -999 -999 -999 -999 -999
2008-08-04 08:38:16 51°14.692 2°54.72 -999 -999 -999 -999 -999
2008-08-04 08:38:21 51°14.706 2°54.713 -999 -999 -999 -999 -999
2008-08-04 08:38:26 51°14.72 2°54.705 -999 -999 -999 -999 -999
2008-08-04 08:38:31 51°14.734 2°54.698 -999 -999 -999 -999 -999
2008-08-04 08:38:36 51°14.748 2°54.69 -999 -999 -999 -999 -999
2008-08-04 08:38:41 51°14.762 2°54.682 -999 -999 -999 -999 -999
2008-08-04 08:38:46 51°14.776 2°54.674 -999 -999 -999 -999 -999
2008-08-04 08:38:51 51°14.79 2°54.668 -999 -999 -999 -999 -999
2008-08-04 08:38:56 51°14.805 2°54.66 -999 -999 -999 -999 -999
2008-08-04 08:39:01 51°14.818 2°54.654 -999 -999 -999 -999 -999
2008-08-04 08:39:06 51°14.832 2°54.646 -999 -999 -999 -999 -999
2008-08-04 08:39:11 51°14.846 2°54.636 -999 -999 -999 -999 -999
2008-08-04 08:39:16 51°14.86 2°54.627 -999 -999 -999 -999 -999
2008-08-04 08:39:21 51°14.873 2°54.619 -999 -999 -999 -999 -999
2008-08-04 08:39:26 51°14.887 2°54.61 -999 -999 -999 -999 -999
2008-08-04 08:39:31 51°14.901 2°54.601 -999 -999 -999 -999 -999
2008-08-04 08:39:36 51°14.915 2°54.592 -999 -999 -999 -999 -999
2008-08-04 08:39:41 51°14.929 2°54.584 -999 -999 -999 -999 -999
2008-08-04 08:39:46 51°14.943 2°54.576 -999 -999 -999 -999 -999
2008-08-04 08:39:51 51°14.957 2°54.57 -999 -999 -999 -999 -999
2008-08-04 08:39:56 51°14.971 2°54.562 -999 -999 -999 -999 -999
2008-08-04 08:40:01 51°14.985 2°54.555 -999 -999 -999 -999 -999
2008-08-04 08:40:06 51°14.998 2°54.546 -999 -999 -999 -999 -999
2008-08-04 08:40:11 51°15.011 2°54.537 -999 -999 -999 -999 -999
2008-08-04 08:40:16 51°15.024 2°54.528 -999 -999 -999 -999 -999
2008-08-04 08:40:21 51°15.037 2°54.52 -999 -999 -999 -999 -999
2008-08-04 08:40:26 51°15.05 2°54.51 -999 -999 -999 -999 -999
2008-08-04 08:40:31 51°15.063 2°54.502 -999 -999 -999 -999 -999
2008-08-04 08:40:36 51°15.075 2°54.493 -999 -999 -999 -999 -999
2008-08-04 08:40:41 51°15.088 2°54.484 -999 -999 -999 -999 -999
2008-08-04 08:40:46 51°15.101 2°54.475 -999 -999 -999 -999 -999
2008-08-04 08:40:51 51°15.113 2°54.466 -999 16 -999 -999 -999
2008-08-04 08:40:56 51°15.126 2°54.457 14.2 11 -999 -999 -999
2008-08-04 08:41:01 51°15.138 2°54.449 11.5 311 -999 -999 -999
2008-08-04 08:41:06 51°15.151 2°54.441 14.9 22 -999 -999 -999
2008-08-04 08:41:10 51°15.161 2°54.434 11.4 307 -999 -999 -999
2008-08-04 08:41:16 51°15.176 2°54.424 14.5 22 17.2 -999 63
2008-08-04 08:41:21 51°15.189 2°54.415 12.2 304 17.2 -999 63
2008-08-04 08:41:25 51°15.199 2°54.408 11.7 27 17.2 -999 74
2008-08-04 08:41:30 51°15.211 2°54.399 14.3 305 17.2 -999 74
2008-08-04 08:41:35 51°15.224 2°54.391 11.4 21 17.2 100990 73
2008-08-04 08:41:40 51°15.237 2°54.383 12.1 304 17.2 100990 73
2008-08-04 08:41:45 51°15.249 2°54.374 11.3 244 17.2 100990 73
2008-08-04 08:41:50 51°15.262 2°54.367 11.7 303 17.2 100990 73
2008-08-04 08:41:55 51°15.275 2°54.359 13.1 24 17.2 101000 73
2008-08-04 08:42:00 51°15.288 2°54.351 13.5 303 17.2 101000 73
2008-08-04 08:42:05 51°15.3 2°54.344 12.5 22 17.2 101000 74
2008-08-04 08:42:10 51°15.313 2°54.336 12.2 304 17.2 101000 74
2008-08-04 08:42:14 51°15.323 2°54.329 13 22 17.2 100990 74
2008-08-04 08:42:20 51°15.339 2°54.321 12.9 304 17.2 100990 74
2008-08-04 08:42:25 51°15.352 2°54.312 12.1 26 17.2 101000 74
2008-08-04 08:42:29 51°15.362 2°54.306 12.3 305 17.2 101000 74
2008-08-04 08:42:34 51°15.374 2°54.298 10.9 245 17.2 101000 75
2008-08-04 08:42:39 51°15.387 2°54.291 10.7 300 17.2 101000 75
2008-08-04 08:42:44 51°15.4 2°54.283 9.5 246 17.2 101000 75
2008-08-04 08:42:49 51°15.413 2°54.275 12.3 308 17.2 101000 75
2008-08-04 08:42:54 51°15.426 2°54.267 13.1 20 17.1 101010 75
2008-08-04 08:42:59 51°15.439 2°54.259 11.5 301 17.1 101010 75
2008-08-04 08:43:04 51°15.452 2°54.251 11.2 25 17.2 101000 75
2008-08-04 08:43:09 51°15.464 2°54.243 11.3 301 17.2 101000 75
2008-08-04 08:43:13 51°15.474 2°54.237 12.2 30 17.2 101010 76
2008-08-04 08:43:18 51°15.487 2°54.229 10.9 301 17.2 101010 76
2008-08-04 08:43:23 51°15.5 2°54.221 12.8 243 17.2 101000 77
2008-08-04 08:43:29 51°15.515 2°54.212 14.4 306 17.2 101000 77
2008-08-04 08:43:33 51°15.525 2°54.206 11.1 28 17.2 101010 77
2008-08-04 08:43:38 51°15.538 2°54.198 11.5 305 17.2 101010 77
2008-08-04 08:43:43 51°15.55 2°54.189 13.6 26 17.2 101010 78
2008-08-04 08:43:48 51°15.563 2°54.181 12.9 300 17.2 101010 78
2008-08-04 08:43:53 51°15.576 2°54.173 15.3 26 17.2 101000 78
2008-08-04 08:43:58 51°15.588 2°54.164 14.1 304 17.2 101000 78
2008-08-04 08:44:02 51°15.598 2°54.158 12.2 27 17.2 101010 78
2008-08-04 08:44:07 51°15.611 2°54.149 11.3 302 17.2 101010 78
2008-08-04 08:44:12 51°15.624 2°54.14 12.4 22 17.2 101010 78
2008-08-04 08:44:17 51°15.636 2°54.132 12.3 309 17.2 101010 78
2008-08-04 08:44:22 51°15.649 2°54.124 11.1 25 17.2 100990 78
2008-08-04 08:44:27 51°15.662 2°54.116 11.9 305 17.2 100990 78
2008-08-04 08:44:32 51°15.674 2°54.108 11.3 20 17.2 101000 78
2008-08-04 08:44:37 51°15.687 2°54.1 11 303 17.2 101000 78
2008-08-04 08:44:42 51°15.699 2°54.092 13.8 23 17.2 101000 78
2008-08-04 08:44:48 51°15.714 2°54.083 11.8 304 17.2 101000 78
2008-08-04 08:44:53 51°15.727 2°54.075 13.1 22 17.2 101000 78
2008-08-04 08:44:57 51°15.737 2°54.068 11.1 304 17.2 101000 78
2008-08-04 08:45:02 51°15.75 2°54.06 11 26 17.2 101000 78
2008-08-04 08:45:07 51°15.763 2°54.053 10.8 305 17.2 101000 78
2008-08-04 08:45:12 51°15.775 2°54.045 12.7 21 17.2 101000 78
2008-08-04 08:45:17 51°15.788 2°54.038 12.9 303 17.2 101000 78
2008-08-04 08:45:22 51°15.801 2°54.032 12.9 21 17.2 100990 78
2008-08-04 08:45:28 51°15.817 2°54.025 13.4 304 17.2 100990 78
2008-08-04 08:45:33 51°15.83 2°54.02 12.7 26 17.2 101000 79
2008-08-04 08:45:37 51°15.84 2°54.016 10.9 302 17.2 101000 79
2008-08-04 08:45:42 51°15.854 2°54.012 12.6 246 17.2 101000 79
2008-08-04 08:45:48 51°15.87 2°54.008 12 308 17.2 101000 79
2008-08-04 08:45:53 51°15.882 2°54.005 10.3 248 17.2 101000 79
2008-08-04 08:45:57 51°15.893 2°54.003 10.2 307 17.2 101000 79
2008-08-04 08:46:02 51°15.906 2°54.002 10.2 250 17.2 101000 80
2008-08-04 08:46:07 51°15.92 2°54.001 11.8 310 17.2 101000 80
2008-08-04 08:46:12 51°15.933 2°54.001 10.1 250 17.2 101000 80
2008-08-04 08:46:17 51°15.946 2°54.001 9 304 17.2 101000 80
2008-08-04 08:46:22 51°15.959 2°54.003 10.5 249 17.2 101010 79
2008-08-04 08:46:27 51°15.973 2°54.004 8.3 299 17.2 101010 79
2008-08-04 08:46:32 51°15.985 2°54.007 9.2 248 17.2 101000 79
2008-08-04 08:46:37 51°15.998 2°54.01 10 307 17.2 101000 79
2008-08-04 08:46:42 51°16.011 2°54.014 10.2 251 17.2 101020 80
2008-08-04 08:46:48 51°16.026 2°54.02 10.7 306 17.2 101020 80
2008-08-04 08:46:52 51°16.036 2°54.023 9.9 249 17.2 101020 80
2008-08-04 08:46:57 51°16.049 2°54.028 11.2 306 17.2 101020 80
2008-08-04 08:47:02 51°16.062 2°54.033 10.4 250 17.3 101010 80
2008-08-04 08:47:07 51°16.074 2°54.038 8 307 17.3 101010 80
2008-08-04 08:47:12 51°16.087 2°54.044 10 248 17.3 101010 80
2008-08-04 08:47:17 51°16.1 2°54.048 9.9 304 17.3 101010 80
2008-08-04 08:47:22 51°16.112 2°54.054 12.1 250 17.3 101010 80
2008-08-04 08:47:28 51°16.128 2°54.059 11.7 308 17.3 101010 80
2008-08-04 08:47:33 51°16.14 2°54.063 9.3 22 17.3 101010 80
2008-08-04 08:47:37 51°16.15 2°54.066 11.5 306 17.3 101010 80
2008-08-04 08:47:42 51°16.163 2°54.068 12 248 17.3 101020 80
2008-08-04 08:47:48 51°16.178 2°54.068 10.3 304 17.3 101020 80
2008-08-04 08:47:53 51°16.191 2°54.067 10.9 244 17.3 101020 80
2008-08-04 08:47:57 51°16.201 2°54.064 12.1 300 17.3 101020 80
2008-08-04 08:48:02 51°16.214 2°54.06 14.3 28 17.2 101010 79
2008-08-04 08:48:07 51°16.226 2°54.054 12.5 305 17.2 101010 79
2008-08-04 08:48:13 51°16.24 2°54.045 10.9 21 17.2 101000 80
2008-08-04 08:48:17 51°16.249 2°54.038 11.3 309 17.2 101000 80
2008-08-04 08:48:22 51°16.26 2°54.028 14.1 21 17.2 101010 79
2008-08-04 08:48:27 51°16.271 2°54.016 13.7 305 17.2 101010 79
2008-08-04 08:48:32 51°16.281 2°54.003 11 21 17.2 101000 79
2008-08-04 08:48:37 51°16.291 2°53.989 12.2 305 17.2 101000 79
2008-08-04 08:48:42 51°16.3 2°53.974 12.3 27 17.1 101000 78
2008-08-04 08:48:47 51°16.31 2°53.958 14.4 308 17.1 101000 78
2008-08-04 08:48:52 51°16.32 2°53.943 12 24 17.1 101000 78
2008-08-04 08:48:57 51°16.329 2°53.928 12.1 307 17.1 101000 78
2008-08-04 08:49:02 51°16.339 2°53.912 13.7 24 17.1 101000 79
2008-08-04 08:49:07 51°16.35 2°53.897 12.2 307 17.1 101000 79
2008-08-04 08:49:12 51°16.359 2°53.882 12.4 28 17.1 100990 79
2008-08-04 08:49:17 51°16.37 2°53.867 15 303 17.1 100990 79
2008-08-04 08:49:22 51°16.379 2°53.852 14.6 27 17.2 100990 80
2008-08-04 08:49:27 51°16.389 2°53.837 14.9 307 17.2 100990 80
2008-08-04 08:49:33 51°16.401 2°53.818 15.6 25 17.2 100980 80
2008-08-04 08:49:37 51°16.409 2°53.805 14.6 303 17.2 100980 80
2008-08-04 08:49:42 51°16.419 2°53.79 13.4 22 17.2 100990 79
2008-08-04 08:49:48 51°16.431 2°53.771 11.5 307 17.2 100990 79
2008-08-04 08:49:52 51°16.439 2°53.759 11.6 28 17.1 100990 79
2008-08-04 08:49:57 51°16.449 2°53.743 10.7 304 17.1 100990 79
2008-08-04 08:50:02 51°16.459 2°53.727 14.3 24 17.1 100990 79
2008-08-04 08:50:07 51°16.469 2°53.711 11.4 301 17.1 100990 79
2008-08-04 08:50:13 51°16.482 2°53.691 13.5 22 17.1 100990 79
2008-08-04 08:50:17 51°16.49 2°53.678 14.1 305 17.1 100990 79
2008-08-04 08:50:22 51°16.501 2°53.662 15.3 26 17.1 101000 78
2008-08-04 08:50:27 51°16.512 2°53.645 15.3 306 17.1 101000 78
2008-08-04 08:50:33 51°16.524 2°53.624 15.9 28 17 100990 79
2008-08-04 08:50:37 51°16.533 2°53.61 15.6 306 17 100990 79
2008-08-04 08:50:42 51°16.544 2°53.593 12.2 26 17.1 100990 79
2008-08-04 08:50:47 51°16.556 2°53.576 14.4 303 17.1 100990 79
2008-08-04 08:50:52 51°16.567 2°53.558 15.8 23 17.1 100990 80
2008-08-04 08:50:57 51°16.578 2°53.54 12.6 308 17.1 100990 80
2008-08-04 08:51:02 51°16.59 2°53.522 15.2 25 17.1 100980 80
2008-08-04 08:51:07 51°16.601 2°53.504 12 304 17.1 100980 80
2008-08-04 08:51:12 51°16.613 2°53.486 13.1 29 17.1 100990 80
2008-08-04 08:51:17 51°16.624 2°53.469 14.3 305 17.1 100990 80
2008-08-04 08:51:22 51°16.636 2°53.451 11.4 26 17 100980 79
2008-08-04 08:51:27 51°16.648 2°53.434 12.9 303 17 100980 79
2008-08-04 08:51:33 51°16.663 2°53.413 15.3 22 17.1 100980 80
2008-08-04 08:51:37 51°16.673 2°53.4 11.9 301 17.1 100980 80
2008-08-04 08:51:42 51°16.685 2°53.383 13.5 25 17.1 100990 80
2008-08-04 08:51:47 51°16.697 2°53.365 14.5 306 17.1 100990 80
2008-08-04 08:51:52 51°16.709 2°53.349 15 28 17.1 100990 81
2008-08-04 08:51:57 51°16.721 2°53.332 15.2 306 17.1 100990 81
2008-08-04 08:52:02 51°16.733 2°53.316 14.4 25 17.1 100990 80
2008-08-04 08:52:07 51°16.746 2°53.301 12.5 303 17.1 100990 80
2008-08-04 08:52:12 51°16.759 2°53.285 13.9 22 17.1 100990 80
2008-08-04 08:52:17 51°16.773 2°53.272 14 304 17.1 100990 80
2008-08-04 08:52:22 51°16.786 2°53.259 13.6 27 17.1 100980 80
2008-08-04 08:52:27 51°16.8 2°53.247 13.6 306 17.1 100980 80
2008-08-04 08:52:33 51°16.816 2°53.232 14.8 21 17.1 100980 80
2008-08-04 08:52:37 51°16.827 2°53.223 15.4 305 17.1 100980 80
2008-08-04 08:52:42 51°16.841 2°53.212 12.8 27 17.1 100990 81
2008-08-04 08:52:47 51°16.855 2°53.201 15.9 281 17.1 100990 81
2008-08-04 08:52:52 51°16.869 2°53.192 14.1 29 17.1 101000 81
2008-08-04 08:52:57 51°16.883 2°53.182 13.4 306 17.1 101000 81
2008-08-04 08:53:02 51°16.898 2°53.175 14.1 21 17.1 100990 81
2008-08-04 08:53:07 51°16.911 2°53.167 10.6 300 17.1 100990 81
2008-08-04 08:53:12 51°16.926 2°53.161 11 28 17.1 100980 81
2008-08-04 08:53:17 51°16.939 2°53.155 10.9 305 17.1 100980 81
2008-08-04 08:53:22 51°16.954 2°53.151 13.6 22 17.1 100990 81
2008-08-04 08:53:27 51°16.968 2°53.147 10.2 303 17.1 100990 81
2008-08-04 08:53:32 51°16.982 2°53.146 12.4 24 17.1 101000 81
2008-08-04 08:53:37 51°16.997 2°53.144 10.5 306 17.1 101000 81
2008-08-04 08:53:42 51°17.011 2°53.145 11.7 247 17.1 101010 81
2008-08-04 08:53:48 51°17.028 2°53.147 9.9 302 17.1 101010 81
2008-08-04 08:53:52 51°17.04 2°53.149 11.8 247 17.1 101000 81
2008-08-04 08:53:57 51°17.054 2°53.152 11.2 307 17.1 101000 81
2008-08-04 08:54:02 51°17.068 2°53.155 9.2 250 17.1 101000 81
2008-08-04 08:54:07 51°17.083 2°53.158 9.3 305 17.1 101000 81
2008-08-04 08:54:12 51°17.097 2°53.163 11.3 249 17.1 101020 81
2008-08-04 08:54:17 51°17.112 2°53.166 8.8 304 17.1 101020 81
2008-08-04 08:54:22 51°17.126 2°53.172 9.1 249 17.1 101010 81
2008-08-04 08:54:27 51°17.141 2°53.176 9.5 302 17.1 101010 81
2008-08-04 08:54:33 51°17.157 2°53.183 8.9 251 17 101020 81
2008-08-04 08:54:37 51°17.169 2°53.187 8.4 301 17 101020 81
2008-08-04 08:54:42 51°17.183 2°53.194 8.5 247 17 101020 81
2008-08-04 08:54:48 51°17.2 2°53.202 8.7 300 17 101020 81
2008-08-04 08:54:53 51°17.214 2°53.211 8.8 247 17 101020 81
2008-08-04 08:54:57 51°17.225 2°53.218 8.1 302 17 101020 81
2008-08-04 08:55:02 51°17.238 2°53.227 10.8 254 17 101020 81
2008-08-04 08:55:07 51°17.252 2°53.237 10.1 304 17 101020 81
2008-08-04 08:55:13 51°17.268 2°53.249 9.1 257 17.1 101020 81
2008-08-04 08:55:17 51°17.278 2°53.257 7.1 308 17.1 101020 81
2008-08-04 08:55:22 51°17.291 2°53.268 9.5 255 17.1 101020 82
2008-08-04 08:55:27 51°17.304 2°53.279 8.8 308 17.1 101020 82
2008-08-04 08:55:32 51°17.317 2°53.292 7 259 17.1 101020 82
2008-08-04 08:55:37 51°17.328 2°53.305 8.6 302 17.1 101020 82
2008-08-04 08:55:42 51°17.34 2°53.319 7.6 258 17.1 101020 82
2008-08-04 08:55:47 51°17.351 2°53.334 6.6 307 17.1 101020 82
2008-08-04 08:55:53 51°17.364 2°53.352 6.4 256 17.1 101020 82
2008-08-04 08:55:57 51°17.372 2°53.366 3.8 304 17.1 101020 82
2008-08-04 08:56:02 51°17.383 2°53.382 4.3 260 17.1 101030 82
2008-08-04 08:56:07 51°17.392 2°53.401 5.7 303 17.1 101030 82
2008-08-04 08:56:12 51°17.402 2°53.418 5.5 270 17.1 101030 81
2008-08-04 08:56:17 51°17.41 2°53.437 3.9 301 17.1 101030 81
2008-08-04 08:56:22 51°17.42 2°53.455 5.3 33 17.1 101030 81
2008-08-04 08:56:27 51°17.429 2°53.474 4.3 307 17.1 101030 81
2008-08-04 08:56:32 51°17.437 2°53.493 3.9 262 17.1 101030 81
2008-08-04 08:56:37 51°17.446 2°53.511 3.8 302 17.1 101030 81
2008-08-04 08:56:42 51°17.454 2°53.532 4.8 268 17 101040 81
2008-08-04 08:56:48 51°17.465 2°53.554 3.6 303 17 101040 81
2008-08-04 08:56:53 51°17.473 2°53.573 3.9 27 17 101040 81
2008-08-04 08:56:57 51°17.48 2°53.588 4.5 64 17 101040 81
2008-08-04 08:57:02 51°17.488 2°53.608 4.9 269 17 101040 81
2008-08-04 08:57:07 51°17.498 2°53.626 5.9 302 17 101040 81
2008-08-04 08:57:12 51°17.506 2°53.646 4 263 17.1 101040 81
2008-08-04 08:57:17 51°17.515 2°53.664 5.4 308 17.1 101040 81
2008-08-04 08:57:22 51°17.524 2°53.683 5.5 261 17 101040 81
2008-08-04 08:57:27 51°17.533 2°53.701 3.7 306 17 101040 81
2008-08-04 08:57:33 51°17.544 2°53.724 4.1 262 17 101030 82
2008-08-04 08:57:37 51°17.552 2°53.738 4 306 17 101030 82
2008-08-04 08:57:42 51°17.561 2°53.757 3.8 268 17.1 101030 82
2008-08-04 08:57:47 51°17.57 2°53.775 5.1 307 17.1 101030 82
2008-08-04 08:57:53 51°17.581 2°53.797 3.9 265 17.1 101030 82
2008-08-04 08:57:57 51°17.589 2°53.811 3.8 304 17.1 101030 82
2008-08-04 08:58:02 51°17.598 2°53.83 5.3 268 17.1 101040 81
2008-08-04 08:58:07 51°17.608 2°53.847 4 306 17.1 101040 81
2008-08-04 08:58:12 51°17.617 2°53.866 3.6 264 17.1 101040 82
2008-08-04 08:58:17 51°17.627 2°53.884 4.6 306 17.1 101040 82
2008-08-04 08:58:22 51°17.636 2°53.903 3.8 268 17 101040 82
2008-08-04 08:58:27 51°17.646 2°53.921 3.7 300 17 101040 82
2008-08-04 08:58:32 51°17.655 2°53.938 3.1 263 17.1 101040 82
2008-08-04 08:58:37 51°17.665 2°53.956 2.6 302 17.1 101040 82
2008-08-04 08:58:42 51°17.674 2°53.974 3.5 263 17.1 101040 82
2008-08-04 08:58:48 51°17.686 2°53.996 3.9 301 17.1 101040 82
2008-08-04 08:58:53 51°17.696 2°54.012 4 266 17.1 101030 82
2008-08-04 08:58:57 51°17.704 2°54.027 3 302 17.1 101030 82
2008-08-04 08:59:02 51°17.713 2°54.043 4.9 261 17.1 101040 82
2008-08-04 08:59:07 51°17.723 2°54.057 5.7 307 17.1 101040 82
2008-08-04 08:59:12 51°17.733 2°54.069 8 255 17.1 101040 82
2008-08-04 08:59:17 51°17.742 2°54.079 8.5 307 17.1 101040 82
2008-08-04 08:59:22 51°17.751 2°54.086 6.1 261 17.1 101040 82
2008-08-04 08:59:28 51°17.76 2°54.093 5.9 307 17.1 101040 82
2008-08-04 08:59:33 51°17.767 2°54.098 6.6 257 17.1 101030 83
2008-08-04 08:59:37 51°17.773 2°54.101 7.5 300 17.1 101030 83
2008-08-04 08:59:42 51°17.78 2°54.103 10.6 257 17.1 101030 83
2008-08-04 08:59:47 51°17.787 2°54.105 7.9 280 17.1 101030 83
2008-08-04 08:59:53 51°17.794 2°54.106 10.6 256 17.1 101030 83
2008-08-04 08:59:57 51°17.799 2°54.106 8.1 305 17.1 101030 83
2008-08-04 09:00:02 51°17.805 2°54.105 10.7 254 17.1 101030 83
2008-08-04 09:00:07 51°17.81 2°54.104 10.2 302 17.1 101030 83
2008-08-04 09:00:12 51°17.816 2°54.103 9.6 23 17.2 101020 83
2008-08-04 09:00:17 51°17.82 2°54.101 11.1 307 17.2 101020 83
2008-08-04 09:00:22 51°17.825 2°54.098 11.4 255 17.2 101020 83
2008-08-04 09:00:27 51°17.83 2°54.096 9.9 303 17.2 101020 83
2008-08-04 09:00:32 51°17.835 2°54.093 10 253 17.2 101020 83
2008-08-04 09:00:37 51°17.839 2°54.09 9.9 307 17.2 101020 83
2008-08-04 09:00:42 51°17.844 2°54.087 10.4 254 17.2 101020 83
2008-08-04 09:00:48 51°17.849 2°54.083 9.3 301 17.2 101020 83
2008-08-04 09:00:53 51°17.853 2°54.08 9.6 251 17.2 101010 83
2008-08-04 09:00:57 51°17.857 2°54.077 11 305 17.2 101010 83
2008-08-04 09:01:02 51°17.861 2°54.074 9.6 252 17.2 101020 83
2008-08-04 09:01:07 51°17.865 2°54.07 8.7 301 17.2 101020 83
2008-08-04 09:01:12 51°17.869 2°54.067 7.9 247 17.2 101010 83
2008-08-04 09:01:17 51°17.873 2°54.063 9.3 307 17.2 101010 83
2008-08-04 09:01:22 51°17.877 2°54.06 10.9 246 17.2 101020 82
2008-08-04 09:01:28 51°17.882 2°54.055 8.9 304 17.2 101020 82
2008-08-04 09:01:33 51°17.886 2°54.052 8.5 20 17.2 101020 82
2008-08-04 09:01:37 51°17.889 2°54.05 10.1 304 17.2 101020 82
2008-08-04 09:01:42 51°17.892 2°54.046 10.4 247 17.2 101020 83
2008-08-04 09:01:47 51°17.895 2°54.043 11 282 17.2 101020 83
2008-08-04 09:01:53 51°17.899 2°54.04 10.7 251 17.2 101020 83
2008-08-04 09:01:57 51°17.901 2°54.037 9.7 301 17.2 101020 83
2008-08-04 09:02:02 51°17.903 2°54.034 10.3 254 17.2 101020 83
2008-08-04 09:02:07 51°17.905 2°54.031 10.4 301 17.2 101020 83
2008-08-04 09:02:13 51°17.908 2°54.027 10.1 251 17.2 101020 83
2008-08-04 09:02:17 51°17.909 2°54.025 13.3 308 17.2 101020 83
2008-08-04 09:02:22 51°17.911 2°54.022 9.8 254 17.3 101020 83
2008-08-04 09:02:27 51°17.912 2°54.019 9.5 304 17.3 101020 83
2008-08-04 09:02:32 51°17.913 2°54.017 9.1 256 17.3 101010 83
2008-08-04 09:02:37 51°17.915 2°54.015 8.7 299 17.3 101010 83
2008-08-04 09:02:42 51°17.916 2°54.013 12 256 17.3 101020 82
2008-08-04 09:02:48 51°17.917 2°54.011 10.6 310 17.3 101020 82
2008-08-04 09:02:52 51°17.918 2°54.009 12.2 253 17.3 101020 82
2008-08-04 09:02:57 51°17.919 2°54.007 10.7 304 17.3 101020 82
2008-08-04 09:03:02 51°17.919 2°54.005 10.6 254 17.3 101010 82
2008-08-04 09:03:07 51°17.919 2°54.003 8.6 304 17.3 101010 82
2008-08-04 09:03:12 51°17.92 2°54.001 7 251 17.3 101010 82
2008-08-04 09:03:17 51°17.92 2°54 8.7 305 17.3 101010 82
2008-08-04 09:03:22 51°17.92 2°53.998 8.2 248 17.3 101020 83
2008-08-04 09:03:28 51°17.92 2°53.996 8.2 308 17.3 101020 83
2008-08-04 09:03:33 51°17.92 2°53.994 11.1 251 17.3 101020 82
2008-08-04 09:03:37 51°17.92 2°53.993 9.6 305 17.3 101020 82
2008-08-04 09:03:42 51°17.92 2°53.991 10.3 245 17.4 101020 83
2008-08-04 09:03:48 51°17.92 2°53.99 10.1 307 17.4 101020 83
2008-08-04 09:03:53 51°17.92 2°53.988 10.9 246 17.4 101020 84
2008-08-04 09:03:57 51°17.92 2°53.988 9.5 307 17.4 101020 84
2008-08-04 09:04:02 51°17.919 2°53.986 11.4 22 17.4 101010 84
2008-08-04 09:04:08 51°17.919 2°53.985 9.3 303 17.4 101010 84
2008-08-04 09:04:13 51°17.919 2°53.984 11.9 246 17.4 101020 83
2008-08-04 09:04:17 51°17.918 2°53.983 11.7 307 17.4 101020 83
2008-08-04 09:04:22 51°17.918 2°53.982 8.8 246 17.4 101020 83
2008-08-04 09:04:27 51°17.917 2°53.981 10.8 307 17.4 101020 83
2008-08-04 09:04:32 51°17.916 2°53.98 10.8 248 17.4 101020 83
2008-08-04 09:04:37 51°17.916 2°53.979 9.3 306 17.4 101020 83
2008-08-04 09:04:42 51°17.915 2°53.978 9.6 246 17.4 101020 82
2008-08-04 09:04:48 51°17.914 2°53.978 9.8 301 17.4 101020 82
2008-08-04 09:04:52 51°17.913 2°53.977 10.8 251 17.4 101020 82
2008-08-04 09:04:57 51°17.913 2°53.977 12.1 306 17.4 101020 82
2008-08-04 09:05:02 51°17.912 2°53.976 9.7 251 17.4 101010 82
2008-08-04 09:05:07 51°17.911 2°53.976 12.3 306 17.4 101010 82
2008-08-04 09:05:12 51°17.91 2°53.976 11.5 256 17.4 101020 82
2008-08-04 09:05:17 51°17.908 2°53.975 10.9 279 17.4 101020 82
2008-08-04 09:05:22 51°17.908 2°53.976 12.7 259 17.4 101020 83
2008-08-04 09:05:28 51°17.906 2°53.975 11.8 308 17.4 101020 83
2008-08-04 09:05:33 51°17.905 2°53.975 10 258 17.3 101020 82
2008-08-04 09:05:37 51°17.904 2°53.975 11.2 301 17.3 101020 82
2008-08-04 09:05:42 51°17.903 2°53.975 11.9 257 17.3 101010 82
2008-08-04 09:05:48 51°17.902 2°53.975 11 306 17.3 101010 82
2008-08-04 09:05:52 51°17.901 2°53.975 11 260 17.3 101020 82
2008-08-04 09:05:57 51°17.9 2°53.975 9.4 303 17.3 101020 82
2008-08-04 09:06:02 51°17.898 2°53.975 7.8 261 17.3 101020 81
2008-08-04 09:06:08 51°17.897 2°53.974 8.6 301 17.3 101020 81
2008-08-04 09:06:13 51°17.895 2°53.974 7.5 262 17.3 101020 81
2008-08-04 09:06:17 51°17.894 2°53.974 7.9 304 17.3 101020 81
2008-08-04 09:06:22 51°17.893 2°53.974 6.5 261 17.3 101020 82
2008-08-04 09:06:27 51°17.891 2°53.974 6.1 307 17.3 101020 82
2008-08-04 09:06:33 51°17.889 2°53.974 5.9 262 17.2 101020 81
2008-08-04 09:06:37 51°17.888 2°53.973 7.7 303 17.2 101020 81
2008-08-04 09:06:42 51°17.887 2°53.973 5.7 260 17.2 101020 82
2008-08-04 09:06:47 51°17.885 2°53.973 7 301 17.2 101020 82
2008-08-04 09:06:52 51°17.884 2°53.972 7.5 263 17.2 101030 82
2008-08-04 09:06:57 51°17.882 2°53.972 6.5 305 17.2 101030 82
2008-08-04 09:07:02 51°17.881 2°53.972 6.2 263 17.3 101030 83
2008-08-04 09:07:07 51°17.879 2°53.971 6.4 301 17.3 101030 83
2008-08-04 09:07:12 51°17.878 2°53.971 5.2 263 17.2 101030 83
2008-08-04 09:07:17 51°17.876 2°53.971 7.2 303 17.2 101030 83
2008-08-04 09:07:22 51°17.874 2°53.97 6.2 264 17.2 101030 83
2008-08-04 09:07:28 51°17.872 2°53.97 5.5 302 17.2 101030 83
2008-08-04 09:07:33 51°17.871 2°53.97 5.7 266 17.3 101030 83
2008-08-04 09:07:37 51°17.87 2°53.97 5.4 307 17.3 101030 83
2008-08-04 09:07:42 51°17.868 2°53.969 5.7 261 17.2 101030 83
2008-08-04 09:07:48 51°17.866 2°53.969 10.6 303 17.2 101030 83
2008-08-04 09:07:52 51°17.865 2°53.969 8.3 261 17.3 101030 84
2008-08-04 09:07:57 51°17.864 2°53.969 8.2 303 17.3 101030 84
2008-08-04 09:08:02 51°17.862 2°53.969 7.2 263 17.3 101020 84
2008-08-04 09:08:07 51°17.86 2°53.968 7.5 307 17.3 101020 84
2008-08-04 09:08:13 51°17.858 2°53.968 9.1 261 17.3 101030 84
2008-08-04 09:08:17 51°17.857 2°53.969 6.2 310 17.3 101030 84
2008-08-04 09:08:22 51°17.855 2°53.969 6.3 270 17.3 101030 84
2008-08-04 09:08:28 51°17.853 2°53.968 6.2 309 17.3 101030 84
2008-08-04 09:08:33 51°17.851 2°53.968 8.2 268 17.3 101030 84
2008-08-04 09:08:37 51°17.85 2°53.968 8.8 309 17.3 101030 84
2008-08-04 09:08:42 51°17.848 2°53.968 8.5 267 17.3 101030 84
2008-08-04 09:08:47 51°17.847 2°53.968 8.4 308 17.3 101030 84
2008-08-04 09:08:53 51°17.845 2°53.968 8.5 267 17.3 101030 85
2008-08-04 09:08:57 51°17.843 2°53.968 8 306 17.3 101030 85
2008-08-04 09:09:02 51°17.842 2°53.968 8.9 266 17.3 101020 84
2008-08-04 09:09:07 51°17.84 2°53.967 8.1 307 17.3 101020 84
2008-08-04 09:09:12 51°17.838 2°53.967 9.5 268 17.2 101030 83
2008-08-04 09:09:17 51°17.836 2°53.967 8.3 308 17.2 101030 83
2008-08-04 09:09:22 51°17.835 2°53.967 8.2 266 17.2 101020 84
2008-08-04 09:09:27 51°17.833 2°53.967 8.1 300 17.2 101020 84
2008-08-04 09:09:33 51°17.831 2°53.966 7.8 270 17.1 101030 83
2008-08-04 09:09:37 51°17.83 2°53.966 7.9 308 17.1 101030 83
2008-08-04 09:09:42 51°17.828 2°53.966 8.3 270 17.2 101020 84
2008-08-04 09:09:47 51°17.827 2°53.966 8.7 303 17.2 101020 84
2008-08-04 09:09:52 51°17.825 2°53.966 8 23 17.1 101030 84
2008-08-04 09:09:57 51°17.824 2°53.965 8 304 17.1 101030 84
2008-08-04 09:10:02 51°17.822 2°53.965 9.4 32 17.2 101030 85
2008-08-04 09:10:07 51°17.82 2°53.965 7.9 311 17.2 101030 85
2008-08-04 09:10:12 51°17.819 2°53.965 9.4 270 17.2 101030 85
2008-08-04 09:10:17 51°17.817 2°53.965 8.6 306 17.2 101030 85
2008-08-04 09:10:22 51°17.815 2°53.965 8.4 268 17.2 101030 85
2008-08-04 09:10:28 51°17.813 2°53.964 7.1 306 17.2 101030 85
2008-08-04 09:10:33 51°17.811 2°53.964 9.3 266 17.1 101030 84
2008-08-04 09:10:37 51°17.81 2°53.964 8 303 17.1 101030 84
2008-08-04 09:10:42 51°17.809 2°53.964 9.7 270 17 101030 83
2008-08-04 09:10:48 51°17.807 2°53.964 9.3 305 17 101030 83
2008-08-04 09:10:52 51°17.805 2°53.964 9.5 270 17 101040 83
2008-08-04 09:10:57 51°17.804 2°53.964 8.3 308 17 101040 83
2008-08-04 09:11:02 51°17.802 2°53.963 8.7 267 17 101030 83
2008-08-04 09:11:07 51°17.8 2°53.963 7.9 303 17 101030 83
2008-08-04 09:11:13 51°17.798 2°53.963 8.5 267 17 101030 84
2008-08-04 09:11:17 51°17.797 2°53.963 6.9 302 17 101030 84
2008-08-04 09:11:22 51°17.796 2°53.963 7.9 266 17.1 101030 85
2008-08-04 09:11:27 51°17.794 2°53.962 9 309 17.1 101030 85
2008-08-04 09:11:32 51°17.792 2°53.962 8.4 266 17.1 101030 85
2008-08-04 09:11:37 51°17.791 2°53.962 8.4 307 17.1 101030 85
2008-08-04 09:11:42 51°17.79 2°53.962 7.4 264 17.1 101030 85
2008-08-04 09:11:47 51°17.788 2°53.962 8 305 17.1 101030 85
2008-08-04 09:11:52 51°17.788 2°53.962 7.6 261 17.1 101030 85
2008-08-04 09:11:57 51°17.788 2°53.962 7.7 308 17.1 101030 85
2008-08-04 09:12:02 51°17.788 2°53.962 7.5 261 17.1 101030 85
2008-08-04 09:12:07 51°17.789 2°53.961 10.6 304 17.1 101030 85
2008-08-04 09:12:12 51°17.79 2°53.961 12.4 258 17 101030 84
2008-08-04 09:12:17 51°17.792 2°53.96 9.1 305 17 101030 84
2008-08-04 09:12:22 51°17.795 2°53.958 11.4 252 17 101040 84
2008-08-04 09:12:28 51°17.798 2°53.956 9.4 301 17 101040 84
2008-08-04 09:12:33 51°17.802 2°53.953 9.9 253 17 101030 85
2008-08-04 09:12:37 51°17.805 2°53.951 10.6 307 17 101030 85
2008-08-04 09:12:42 51°17.809 2°53.948 10.4 251 17 101030 85
2008-08-04 09:12:47 51°17.813 2°53.944 11 306 17 101030 85
2008-08-04 09:12:52 51°17.818 2°53.941 9.7 252 17 101030 85
2008-08-04 09:12:57 51°17.823 2°53.937 9.8 302 17 101030 85
2008-08-04 09:13:02 51°17.828 2°53.933 10.6 253 17 101030 85
2008-08-04 09:13:07 51°17.834 2°53.929 11.1 303 17 101030 85
2008-08-04 09:13:13 51°17.84 2°53.925 10.9 249 17 101020 85
2008-08-04 09:13:17 51°17.845 2°53.923 12.7 301 17 101020 85
2008-08-04 09:13:22 51°17.852 2°53.919 11.4 251 17 101030 84
2008-08-04 09:13:27 51°17.858 2°53.916 9.2 302 17 101030 84
2008-08-04 09:13:33 51°17.865 2°53.912 11.6 249 17 101030 84
2008-08-04 09:13:37 51°17.871 2°53.91 9.9 300 17 101030 84
2008-08-04 09:13:42 51°17.877 2°53.907 12.2 249 17 101030 85
2008-08-04 09:13:47 51°17.884 2°53.904 10.2 305 17 101030 85
2008-08-04 09:13:53 51°17.892 2°53.9 8.6 248 17 101030 85
2008-08-04 09:13:57 51°17.898 2°53.898 12.2 307 17 101030 85
2008-08-04 09:14:02 51°17.905 2°53.895 11 250 17 101030 85
2008-08-04 09:14:07 51°17.912 2°53.892 10 304 17 101030 85
2008-08-04 09:14:12 51°17.919 2°53.889 9.7 249 17 101020 84
2008-08-04 09:14:17 51°17.926 2°53.886 12.4 302 17 101020 84
2008-08-04 09:14:22 51°17.934 2°53.883 9 250 17 101040 85
2008-08-04 09:14:28 51°17.942 2°53.88 9.3 302 17 101040 85
2008-08-04 09:14:33 51°17.949 2°53.877 9.3 250 17.1 101020 85
2008-08-04 09:14:37 51°17.955 2°53.875 11.9 307 17.1 101020 85
2008-08-04 09:14:42 51°17.963 2°53.872 10.2 248 17 101030 84
2008-08-04 09:14:47 51°17.97 2°53.87 8.9 299 17 101030 84
2008-08-04 09:14:52 51°17.977 2°53.867 11.6 250 17 101030 84
2008-08-04 09:14:57 51°17.985 2°53.864 11.7 307 17 101030 84
2008-08-04 09:15:02 51°17.992 2°53.861 10.7 250 17 101030 84
2008-08-04 09:15:08 51°18 2°53.858 11.4 300 17 101030 84
2008-08-04 09:15:13 51°18.008 2°53.855 10.1 250 17.1 101030 85
2008-08-04 09:15:17 51°18.013 2°53.853 8.4 302 17.1 101030 85
2008-08-04 09:15:22 51°18.02 2°53.85 11.5 249 17.1 101030 85
2008-08-04 09:15:28 51°18.029 2°53.847 11 302 17.1 101030 85
2008-08-04 09:15:33 51°18.036 2°53.844 14 249 17.1 101050 84
2008-08-04 09:15:37 51°18.042 2°53.841 12.3 301 17.1 101050 84
2008-08-04 09:15:42 51°18.049 2°53.839 9.4 248 17.1 101030 85
2008-08-04 09:15:47 51°18.056 2°53.835 9.6 307 17.1 101030 85
2008-08-04 09:15:53 51°18.064 2°53.832 10 247 17.1 101030 84
2008-08-04 09:15:57 51°18.07 2°53.829 10.5 303 17.1 101030 84
2008-08-04 09:16:02 51°18.077 2°53.826 9.9 246 17.1 101040 84
2008-08-04 09:16:07 51°18.084 2°53.823 12 301 17.1 101040 84
2008-08-04 09:16:13 51°18.093 2°53.82 12 245 17.1 101030 84
2008-08-04 09:16:17 51°18.099 2°53.817 12.4 310 17.1 101030 84
2008-08-04 09:16:22 51°18.106 2°53.814 11.5 250 17.1 101030 84
2008-08-04 09:16:28 51°18.115 2°53.81 12 306 17.1 101030 84
2008-08-04 09:16:33 51°18.122 2°53.807 11.8 250 17.1 101030 84
2008-08-04 09:16:37 51°18.127 2°53.805 10 304 17.1 101030 84
2008-08-04 09:16:42 51°18.135 2°53.802 11.2 252 17.1 101040 84
2008-08-04 09:16:47 51°18.142 2°53.799 11.5 307 17.1 101040 84
2008-08-04 09:16:52 51°18.149 2°53.795 11.5 251 17.1 101030 84
2008-08-04 09:16:57 51°18.156 2°53.793 11.4 306 17.1 101030 84
2008-08-04 09:17:02 51°18.164 2°53.79 11.2 253 17.1 101040 84
2008-08-04 09:17:08 51°18.173 2°53.787 10.2 278 17.1 101040 84
2008-08-04 09:17:13 51°18.18 2°53.784 9.4 256 17.1 101040 83
2008-08-04 09:17:17 51°18.186 2°53.781 9.5 302 17.1 101040 83
2008-08-04 09:17:22 51°18.193 2°53.778 8.4 252 17.1 101030 84
2008-08-04 09:17:28 51°18.201 2°53.775 10.5 301 17.1 101030 84
2008-08-04 09:17:33 51°18.208 2°53.772 8.5 253 17.1 101040 84
2008-08-04 09:17:37 51°18.214 2°53.77 11.1 308 17.1 101040 84
2008-08-04 09:17:42 51°18.222 2°53.767 8.7 249 17.2 101050 84
2008-08-04 09:17:48 51°18.23 2°53.763 8.5 306 17.2 101050 84
2008-08-04 09:17:53 51°18.238 2°53.76 9.9 247 17.2 101040 85
2008-08-04 09:17:57 51°18.243 2°53.757 11.9 302 17.2 101040 85
2008-08-04 09:18:02 51°18.251 2°53.754 9.4 250 17.2 101040 85
2008-08-04 09:18:07 51°18.258 2°53.751 11.8 301 17.2 101040 85
2008-08-04 09:18:12 51°18.265 2°53.749 8.3 251 17.2 101040 85
2008-08-04 09:18:17 51°18.273 2°53.746 11.9 303 17.2 101040 85
2008-08-04 09:18:22 51°18.28 2°53.742 12.6 250 17.2 101040 85
2008-08-04 09:18:28 51°18.288 2°53.739 12.2 308 17.2 101040 85
2008-08-04 09:18:33 51°18.296 2°53.736 11.2 21 17.2 101040 85
2008-08-04 09:18:37 51°18.302 2°53.734 13.1 307 17.2 101040 85
2008-08-04 09:18:42 51°18.309 2°53.731 9.5 24 17.2 101040 85
2008-08-04 09:18:47 51°18.316 2°53.728 10.6 303 17.2 101040 85
2008-08-04 09:18:52 51°18.323 2°53.726 12.2 247 17.2 101030 85
2008-08-04 09:18:57 51°18.33 2°53.724 13.3 302 17.2 101030 85
2008-08-04 09:19:02 51°18.337 2°53.721 10.7 246 17.2 101040 85
2008-08-04 09:19:08 51°18.345 2°53.718 10.6 303 17.2 101040 85
2008-08-04 09:19:13 51°18.352 2°53.715 11.8 23 17.2 101030 85
2008-08-04 09:19:17 51°18.356 2°53.713 12.4 305 17.2 101030 85
2008-08-04 09:19:22 51°18.361 2°53.71 12.6 250 17.2 101040 85
2008-08-04 09:19:28 51°18.367 2°53.707 12.5 305 17.2 101040 85
2008-08-04 09:19:33 51°18.371 2°53.704 12.2 251 17.2 101050 85
2008-08-04 09:19:37 51°18.374 2°53.701 12.5 305 17.2 101050 85
2008-08-04 09:19:42 51°18.377 2°53.698 9.9 248 17.2 101050 84
2008-08-04 09:19:48 51°18.381 2°53.695 12 307 17.2 101050 84
2008-08-04 09:19:53 51°18.384 2°53.692 11.6 246 17.2 101050 84
2008-08-04 09:19:57 51°18.386 2°53.69 11.7 300 17.2 101050 84
2008-08-04 09:20:02 51°18.389 2°53.687 12.1 251 17.2 101040 84
2008-08-04 09:20:07 51°18.391 2°53.684 9.8 301 17.2 101040 84
2008-08-04 09:20:13 51°18.394 2°53.68 12.1 251 17.2 101040 84
2008-08-04 09:20:17 51°18.395 2°53.679 11.7 307 17.2 101040 84
2008-08-04 09:20:22 51°18.397 2°53.676 9.5 250 17.2 101040 84
2008-08-04 09:20:28 51°18.399 2°53.673 11.9 307 17.2 101040 84
2008-08-04 09:20:33 51°18.401 2°53.67 9.7 251 17.1 101040 84
2008-08-04 09:20:37 51°18.402 2°53.669 12.1 301 17.1 101040 84
2008-08-04 09:20:42 51°18.404 2°53.667 10.5 257 17.1 101040 84
2008-08-04 09:20:47 51°18.405 2°53.665 10.4 307 17.1 101040 84
2008-08-04 09:20:52 51°18.406 2°53.663 10.7 257 17.1 101040 84
2008-08-04 09:20:57 51°18.407 2°53.661 10.4 306 17.1 101040 84
2008-08-04 09:21:02 51°18.408 2°53.66 9.4 257 17.1 101040 84
2008-08-04 09:21:08 51°18.409 2°53.658 12 308 17.1 101040 84
2008-08-04 09:21:13 51°18.41 2°53.656 9.3 257 17.1 101050 83
2008-08-04 09:21:17 51°18.41 2°53.655 11.3 308 17.1 101050 83
2008-08-04 09:21:22 51°18.411 2°53.653 9.9 256 17.1 101040 83
2008-08-04 09:21:28 51°18.411 2°53.652 11.6 302 17.1 101040 83
2008-08-04 09:21:33 51°18.412 2°53.65 11.2 255 17.1 101040 84
2008-08-04 09:21:37 51°18.412 2°53.649 10.5 305 17.1 101040 84
2008-08-04 09:21:42 51°18.413 2°53.647 8.6 253 17.1 101040 84
2008-08-04 09:21:48 51°18.413 2°53.645 10.9 308 17.1 101040 84
2008-08-04 09:21:53 51°18.414 2°53.643 9.2 256 17.2 101050 84
2008-08-04 09:21:57 51°18.414 2°53.642 9.6 301 17.2 101050 84
2008-08-04 09:22:02 51°18.415 2°53.64 12.9 255 17.2 101050 85
2008-08-04 09:22:08 51°18.415 2°53.639 12.6 305 17.2 101050 85
2008-08-04 09:22:13 51°18.416 2°53.637 12 254 17.3 101050 85
2008-08-04 09:22:17 51°18.416 2°53.637 8.7 303 17.3 101050 85
2008-08-04 09:22:22 51°18.417 2°53.636 11.1 251 17.2 101050 85
2008-08-04 09:22:27 51°18.417 2°53.634 7.7 303 17.2 101050 85
2008-08-04 09:22:33 51°18.418 2°53.632 10.1 251 17.2 101040 85
2008-08-04 09:22:37 51°18.418 2°53.631 9 309 17.2 101040 85
2008-08-04 09:22:42 51°18.419 2°53.63 11.4 250 17.3 101050 85
2008-08-04 09:22:47 51°18.419 2°53.629 9.8 305 17.3 101050 85
2008-08-04 09:22:53 51°18.42 2°53.628 10.5 254 17.3 101040 85
2008-08-04 09:22:57 51°18.421 2°53.627 9.5 304 17.3 101040 85
2008-08-04 09:23:02 51°18.422 2°53.626 11.9 255 17.3 101060 85
2008-08-04 09:23:07 51°18.424 2°53.625 10.4 306 17.3 101060 85
2008-08-04 09:23:13 51°18.426 2°53.623 12.4 255 17.3 101040 85
2008-08-04 09:23:17 51°18.427 2°53.622 12.9 309 17.3 101040 85
2008-08-04 09:23:22 51°18.429 2°53.62 9 259 17.3 101040 85
2008-08-04 09:23:28 51°18.432 2°53.618 10.3 308 17.3 101040 85
2008-08-04 09:23:32 51°18.435 2°53.617 10.5 256 17.3 101050 85
2008-08-04 09:23:37 51°18.438 2°53.615 11.8 302 17.3 101050 85
2008-08-04 09:23:42 51°18.441 2°53.614 11.6 259 17.3 101050 85
2008-08-04 09:23:47 51°18.445 2°53.612 10.7 304 17.3 101050 85
2008-08-04 09:23:53 51°18.449 2°53.611 9.1 258 17.3 101060 85
2008-08-04 09:23:57 51°18.452 2°53.61 8 306 17.3 101060 85
2008-08-04 09:24:02 51°18.456 2°53.609 9.9 259 17.3 101050 85
2008-08-04 09:24:08 51°18.461 2°53.607 7.7 301 17.3 101050 85
2008-08-04 09:24:13 51°18.465 2°53.606 8.6 260 17.3 101050 84
2008-08-04 09:24:17 51°18.468 2°53.604 9.1 303 17.3 101050 84
2008-08-04 09:24:22 51°18.473 2°53.603 10.6 257 17.3 101050 84
2008-08-04 09:24:28 51°18.478 2°53.601 9.9 305 17.3 101050 84
2008-08-04 09:24:33 51°18.483 2°53.6 10.6 256 17.2 101050 84
2008-08-04 09:24:37 51°18.486 2°53.599 10.3 304 17.2 101050 84
2008-08-04 09:24:42 51°18.491 2°53.598 9.4 256 17.2 101060 84
2008-08-04 09:24:47 51°18.496 2°53.596 10.1 305 17.2 101060 84
2008-08-04 09:24:53 51°18.502 2°53.594 10.2 256 17.2 101060 83
2008-08-04 09:24:57 51°18.506 2°53.593 13.3 306 17.2 101060 83
2008-08-04 09:25:02 51°18.51 2°53.592 8.6 260 17.2 101050 84
2008-08-04 09:25:07 51°18.515 2°53.591 10.3 303 17.2 101050 84
2008-08-04 09:25:12 51°18.52 2°53.589 12 256 17.3 101050 85
2008-08-04 09:25:17 51°18.525 2°53.588 10.8 302 17.3 101050 85
2008-08-04 09:25:22 51°18.531 2°53.586 14.3 256 17.2 101050 84
2008-08-04 09:25:27 51°18.535 2°53.585 9.2 302 17.2 101050 84
2008-08-04 09:25:32 51°18.538 2°53.583 9.9 260 17.2 101050 84
2008-08-04 09:25:37 51°18.54 2°53.582 10.1 304 17.2 101050 84
2008-08-04 09:25:42 51°18.542 2°53.58 11 254 17.2 101040 84
2008-08-04 09:25:47 51°18.542 2°53.579 10.6 302 17.2 101040 84
2008-08-04 09:25:52 51°18.542 2°53.578 10.3 256 17.2 101050 84
2008-08-04 09:25:57 51°18.541 2°53.578 11.8 306 17.2 101050 84
2008-08-04 09:26:02 51°18.54 2°53.577 9.5 259 17.2 101050 84
2008-08-04 09:26:08 51°18.539 2°53.577 9 302 17.2 101050 84
2008-08-04 09:26:13 51°18.537 2°53.576 9.3 257 17.3 101050 85
2008-08-04 09:26:17 51°18.536 2°53.576 9.9 300 17.3 101050 85
2008-08-04 09:26:22 51°18.534 2°53.576 10.3 258 17.3 101040 84
2008-08-04 09:26:28 51°18.533 2°53.576 11.6 302 17.3 101040 84
2008-08-04 09:26:32 51°18.531 2°53.575 9 261 17.2 101050 84
2008-08-04 09:26:37 51°18.529 2°53.575 7.4 306 17.2 101050 84
2008-08-04 09:26:42 51°18.528 2°53.575 9.3 257 17.2 101050 84
2008-08-04 09:26:48 51°18.525 2°53.575 7.3 301 17.2 101050 84
2008-08-04 09:26:53 51°18.524 2°53.574 7.4 262 17.2 101050 84
2008-08-04 09:26:57 51°18.522 2°53.574 6.3 308 17.2 101050 84
2008-08-04 09:27:02 51°18.52 2°53.574 8.6 266 17.2 101050 83
2008-08-04 09:27:07 51°18.518 2°53.574 8.6 308 17.2 101050 83
2008-08-04 09:27:13 51°18.516 2°53.574 7.5 269 17.2 101050 84
2008-08-04 09:27:19 51°18.514 2°53.573 9.2 307 17.2 101050 84
2008-08-04 09:27:25 51°18.512 2°53.573 10.2 270 17.2 101060 84
2008-08-04 09:27:30 51°18.51 2°53.573 9.2 301 17.2 101060 84
2008-08-04 09:27:36 51°18.508 2°53.573 9.5 269 17.2 101050 84
2008-08-04 09:27:41 51°18.506 2°53.572 9.5 308 17.2 101050 84
2008-08-04 09:27:46 51°18.505 2°53.572 9.8 270 17.2 101050 85
2008-08-04 09:27:51 51°18.503 2°53.571 7.7 307 17.2 101050 85
2008-08-04 09:27:56 51°18.501 2°53.571 7.7 270 17.2 101050 84
2008-08-04 09:28:01 51°18.5 2°53.57 9.5 303 17.2 101050 84
2008-08-04 09:28:06 51°18.499 2°53.57 7.9 269 17.1 101050 83
2008-08-04 09:28:10 51°18.499 2°53.57 6.6 308 17.1 101050 83
2008-08-04 09:28:15 51°18.499 2°53.569 8.6 267 17.1 101050 83
2008-08-04 09:28:20 51°18.499 2°53.568 7.1 305 17.1 101050 83
2008-08-04 09:28:25 51°18.5 2°53.568 10.7 261 17 101060 83
2008-08-04 09:28:30 51°18.5 2°53.567 7.4 307 17 101060 83
2008-08-04 09:28:35 51°18.5 2°53.567 9.2 261 17 101060 84
2008-08-04 09:28:40 51°18.5 2°53.566 10.5 304 17 101060 84
2008-08-04 09:28:45 51°18.501 2°53.565 11.1 260 17 101050 84
2008-08-04 09:28:50 51°18.501 2°53.564 8.6 301 17 101050 84
2008-08-04 09:28:55 51°18.501 2°53.564 9.5 258 17.1 101050 84
2008-08-04 09:29:00 51°18.501 2°53.563 9.7 304 17.1 101050 84
2008-08-04 09:29:05 51°18.501 2°53.562 11.5 259 17 101050 84
2008-08-04 09:29:09 51°18.501 2°53.562 9.6 309 17 101050 84
2008-08-04 09:29:14 51°18.501 2°53.561 7.3 259 17 101050 84
2008-08-04 09:29:19 51°18.501 2°53.561 9 303 17 101050 84
2008-08-04 09:29:24 51°18.501 2°53.56 10.4 259 17 101060 84
2008-08-04 09:29:29 51°18.501 2°53.56 9.8 304 17 101060 84
2008-08-04 09:29:34 51°18.501 2°53.559 10.3 253 17 101050 84
2008-08-04 09:29:39 51°18.501 2°53.559 9.9 304 17 101050 84
2008-08-04 09:29:44 51°18.501 2°53.558 13.1 257 17 101060 84
2008-08-04 09:29:49 51°18.501 2°53.558 10.7 304 17 101060 84
2008-08-04 09:29:53 51°18.501 2°53.557 13.1 260 17 101050 84
2008-08-04 09:29:59 51°18.501 2°53.557 9.9 305 17 101050 84
2008-08-04 09:30:03 51°18.501 2°53.556 10.4 257 17 101050 84
2008-08-04 09:30:09 51°18.501 2°53.556 11.3 302 17 101050 84
2008-08-04 09:30:13 51°18.502 2°53.556 12.5 258 17.1 101050 84
2008-08-04 09:30:18 51°18.502 2°53.555 11.7 308 17.1 101050 84
2008-08-04 09:30:23 51°18.502 2°53.554 9.7 258 17 101050 85
2008-08-04 09:30:28 51°18.502 2°53.554 11.2 309 17 101050 85
2008-08-04 09:30:33 51°18.502 2°53.553 9.1 258 17.1 101050 84
2008-08-04 09:30:38 51°18.502 2°53.553 10.7 303 17.1 101050 84
2008-08-04 09:30:43 51°18.503 2°53.553 6.9 261 17.1 101050 84
2008-08-04 09:30:48 51°18.503 2°53.553 9 301 17.1 101050 84
2008-08-04 09:30:53 51°18.503 2°53.552 9.6 261 17 101050 85
2008-08-04 09:30:57 51°18.503 2°53.553 7 302 17 101050 85
2008-08-04 09:31:02 51°18.503 2°53.552 7.6 265 17.1 101050 85
2008-08-04 09:31:08 51°18.503 2°53.551 5.4 302 17.1 101050 85
2008-08-04 09:31:13 51°18.503 2°53.551 7.2 265 17.1 101050 85
2008-08-04 09:31:17 51°18.503 2°53.55 6.3 305 17.1 101050 85
2008-08-04 09:31:22 51°18.504 2°53.55 7.3 265 17.1 101050 85
2008-08-04 09:31:27 51°18.504 2°53.55 8.2 309 17.1 101050 85
2008-08-04 09:31:33 51°18.504 2°53.549 6.7 263 17.1 101050 84
2008-08-04 09:31:37 51°18.504 2°53.549 7 308 17.1 101050 84
2008-08-04 09:31:42 51°18.504 2°53.549 7.6 263 17.1 101050 84
2008-08-04 09:31:47 51°18.504 2°53.548 7 302 17.1 101050 84
2008-08-04 09:31:52 51°18.504 2°53.548 6.5 263 17 101050 84
2008-08-04 09:31:57 51°18.504 2°53.548 7.3 305 17 101050 84
2008-08-04 09:32:02 51°18.504 2°53.547 6 263 17 101050 83
2008-08-04 09:32:07 51°18.505 2°53.547 7 302 17 101050 83
2008-08-04 09:32:12 51°18.505 2°53.547 6.8 265 17 101050 84
2008-08-04 09:32:17 51°18.505 2°53.547 7.1 305 17 101050 84
2008-08-04 09:32:22 51°18.505 2°53.546 8 270 17 101050 84
2008-08-04 09:32:28 51°18.505 2°53.546 6.9 308 17 101050 84
2008-08-04 09:32:33 51°18.506 2°53.545 9.2 267 17 101050 84
2008-08-04 09:32:37 51°18.506 2°53.545 6.9 301 17 101050 84
2008-08-04 09:32:42 51°18.506 2°53.544 5.8 263 17 101060 85
2008-08-04 09:32:47 51°18.506 2°53.544 5.8 303 17 101060 85
2008-08-04 09:32:52 51°18.507 2°53.544 5.7 264 17 101060 85
2008-08-04 09:32:57 51°18.507 2°53.543 6.3 303 17 101060 85
2008-08-04 09:33:02 51°18.507 2°53.543 7.8 268 17 101060 85
2008-08-04 09:33:08 51°18.508 2°53.542 7.4 304 17 101060 85
2008-08-04 09:33:13 51°18.508 2°53.542 6 262 17 101050 85
2008-08-04 09:33:17 51°18.508 2°53.541 5.2 309 17 101050 85
2008-08-04 09:33:22 51°18.509 2°53.541 6.8 263 17 101050 85
2008-08-04 09:33:28 51°18.509 2°53.541 6.5 309 17 101050 85
2008-08-04 09:33:33 51°18.509 2°53.54 7.5 262 17 101060 85
2008-08-04 09:33:37 51°18.51 2°53.54 7 300 17 101060 85
2008-08-04 09:33:42 51°18.51 2°53.54 7.7 265 17 101050 86
2008-08-04 09:33:48 51°18.51 2°53.539 9.7 301 17 101050 86
2008-08-04 09:33:53 51°18.511 2°53.539 8.6 262 17 101050 86
2008-08-04 09:33:57 51°18.511 2°53.539 5.6 308 17 101050 86
2008-08-04 09:34:02 51°18.511 2°53.539 7.1 263 17.1 101060 87
2008-08-04 09:34:07 51°18.511 2°53.538 6.5 309 17.1 101060 87
2008-08-04 09:34:13 51°18.512 2°53.538 8.4 261 17 101050 86
2008-08-04 09:34:17 51°18.512 2°53.538 6.4 300 17 101050 86
2008-08-04 09:34:22 51°18.512 2°53.537 6.6 263 17.1 101050 87
2008-08-04 09:34:28 51°18.512 2°53.537 6.7 302 17.1 101050 87
2008-08-04 09:34:33 51°18.512 2°53.537 8.3 262 17.1 101050 87
2008-08-04 09:34:37 51°18.513 2°53.537 6.7 304 17.1 101050 87
2008-08-04 09:34:42 51°18.513 2°53.537 8.3 261 17.1 101050 87
2008-08-04 09:34:47 51°18.513 2°53.537 6.7 302 17.1 101050 87
2008-08-04 09:34:52 51°18.513 2°53.537 5.9 263 17 101050 86
2008-08-04 09:34:57 51°18.513 2°53.536 7.6 305 17 101050 86
2008-08-04 09:35:02 51°18.513 2°53.536 7.2 263 17 101060 86
2008-08-04 09:35:08 51°18.513 2°53.536 7.1 302 17 101060 86
2008-08-04 09:35:13 51°18.513 2°53.536 6.8 262 17 101060 86
2008-08-04 09:35:17 51°18.513 2°53.536 6.7 303 17 101060 86
2008-08-04 09:35:22 51°18.513 2°53.536 6.9 266 17 101050 86
2008-08-04 09:35:28 51°18.513 2°53.536 5.9 307 17 101050 86
2008-08-04 09:35:33 51°18.513 2°53.535 7.3 265 17 101050 86
2008-08-04 09:35:37 51°18.513 2°53.535 7.9 302 17 101050 86
2008-08-04 09:35:42 51°18.513 2°53.535 5.9 265 17 101050 85
2008-08-04 09:35:48 51°18.513 2°53.535 6.9 302 17 101050 85
2008-08-04 09:35:53 51°18.513 2°53.535 8.3 267 16.9 101050 85
2008-08-04 09:35:57 51°18.513 2°53.535 7 302 16.9 101050 85
2008-08-04 09:36:02 51°18.513 2°53.535 7.6 267 16.9 101050 85
2008-08-04 09:36:07 51°18.513 2°53.535 7.4 277 16.9 101050 85
2008-08-04 09:36:13 51°18.513 2°53.535 7.4 266 16.9 101050 85
2008-08-04 09:36:17 51°18.513 2°53.535 6.9 309 16.9 101050 85
2008-08-04 09:36:22 51°18.512 2°53.535 7.6 268 16.9 101060 86
2008-08-04 09:36:28 51°18.511 2°53.535 6.7 301 16.9 101060 86
2008-08-04 09:36:33 51°18.511 2°53.535 5.7 263 16.9 101050 87
2008-08-04 09:36:37 51°18.511 2°53.535 7 306 16.9 101050 87
2008-08-04 09:36:42 51°18.511 2°53.535 6.7 266 16.9 101060 87
2008-08-04 09:36:47 51°18.511 2°53.535 7 300 16.9 101060 87
2008-08-04 09:36:52 51°18.51 2°53.535 7 266 16.9 101050 87
2008-08-04 09:36:57 51°18.51 2°53.535 7.7 307 16.9 101050 87
2008-08-04 09:37:02 51°18.51 2°53.534 6.7 261 17 101050 87
2008-08-04 09:37:08 51°18.51 2°53.535 6.5 304 17 101050 87
2008-08-04 09:37:13 51°18.51 2°53.535 7 264 17 101060 88
2008-08-04 09:37:17 51°18.511 2°53.535 4.9 305 17 101060 88
2008-08-04 09:37:22 51°18.511 2°53.535 7.1 262 17 101050 88
2008-08-04 09:37:28 51°18.511 2°53.535 6.2 308 17 101050 88
2008-08-04 09:37:33 51°18.511 2°53.535 5.4 262 17.1 101050 89
2008-08-04 09:37:37 51°18.511 2°53.535 6.4 305 17.1 101050 89
2008-08-04 09:37:42 51°18.511 2°53.535 8 261 17.1 101050 88
2008-08-04 09:37:48 51°18.512 2°53.534 7.8 309 17.1 101050 88
2008-08-04 09:37:53 51°18.512 2°53.534 7.1 264 17 101050 88
2008-08-04 09:37:57 51°18.512 2°53.534 8.6 302 17 101050 88
2008-08-04 09:38:02 51°18.512 2°53.534 7.6 259 17.1 101060 88
2008-08-04 09:38:08 51°18.512 2°53.534 7.7 280 17.1 101060 88
2008-08-04 09:38:13 51°18.512 2°53.533 8.3 260 17 101050 87
2008-08-04 09:38:17 51°18.512 2°53.533 8.6 308 17 101050 87
2008-08-04 09:38:22 51°18.512 2°53.533 8.9 260 17.1 101050 88
2008-08-04 09:38:28 51°18.512 2°53.533 8 303 17.1 101050 88
2008-08-04 09:38:33 51°18.512 2°53.533 7.5 265 17.1 101060 88
2008-08-04 09:38:37 51°18.512 2°53.533 10.6 303 17.1 101060 88
2008-08-04 09:38:42 51°18.512 2°53.533 8.7 266 17 101050 88
2008-08-04 09:38:47 51°18.512 2°53.533 6 300 17 101050 88
2008-08-04 09:38:53 51°18.512 2°53.533 7.1 267 17 101050 88
2008-08-04 09:38:57 51°18.513 2°53.533 7.9 304 17 101050 88
2008-08-04 09:39:02 51°18.513 2°53.533 7.9 265 17 101050 88
2008-08-04 09:39:08 51°18.513 2°53.533 9.5 305 17 101050 88
2008-08-04 09:39:13 51°18.513 2°53.533 9.7 268 17 101050 87
2008-08-04 09:39:17 51°18.513 2°53.533 8.2 303 17 101050 87
2008-08-04 09:39:22 51°18.513 2°53.533 9.7 267 17 101060 87
2008-08-04 09:39:28 51°18.513 2°53.533 6.4 301 17 101060 87
2008-08-04 09:39:32 51°18.513 2°53.533 9 265 16.9 101050 87
2008-08-04 09:39:37 51°18.513 2°53.533 7.8 300 16.9 101050 87
2008-08-04 09:39:42 51°18.513 2°53.533 7.2 264 16.9 101050 87
2008-08-04 09:39:48 51°18.513 2°53.533 7.2 306 16.9 101050 87
2008-08-04 09:39:53 51°18.513 2°53.533 6.7 264 16.9 101050 86
2008-08-04 09:39:57 51°18.513 2°53.533 7.1 308 16.9 101050 86
2008-08-04 09:40:02 51°18.513 2°53.533 8 265 16.8 101050 86
2008-08-04 09:40:08 51°18.513 2°53.533 7.8 281 16.8 101050 86
2008-08-04 09:40:13 51°18.513 2°53.533 7.4 265 16.8 101050 86
2008-08-04 09:40:17 51°18.513 2°53.533 7.3 306 16.8 101050 86
2008-08-04 09:40:22 51°18.513 2°53.533 6.5 266 16.8 101040 87
2008-08-04 09:40:28 51°18.513 2°53.533 7.4 306 16.8 101040 87
2008-08-04 09:40:33 51°18.513 2°53.533 6.1 265 16.8 101050 87
2008-08-04 09:40:37 51°18.513 2°53.533 5.5 303 16.8 101050 87
2008-08-04 09:40:42 51°18.513 2°53.533 5.6 264 16.8 101050 86
2008-08-04 09:40:47 51°18.512 2°53.533 6.8 300 16.8 101050 86
2008-08-04 09:40:53 51°18.513 2°53.533 6.2 266 16.7 101050 86
2008-08-04 09:40:57 51°18.512 2°53.532 8.4 304 16.7 101050 86
2008-08-04 09:41:02 51°18.512 2°53.532 6.2 259 16.7 101040 86
2008-08-04 09:41:07 51°18.512 2°53.532 7.9 304 16.7 101040 86
2008-08-04 09:41:13 51°18.512 2°53.532 7.6 258 16.7 101050 87
2008-08-04 09:41:17 51°18.512 2°53.532 7.2 302 16.7 101050 87
2008-08-04 09:41:22 51°18.512 2°53.532 6.8 264 16.8 101060 87
2008-08-04 09:41:28 51°18.513 2°53.532 6.2 302 16.8 101060 87
2008-08-04 09:41:32 51°18.512 2°53.532 6.4 264 16.8 101060 88
2008-08-04 09:41:37 51°18.513 2°53.532 7.6 302 16.8 101060 88
2008-08-04 09:41:42 51°18.513 2°53.532 9 260 16.8 101050 88
2008-08-04 09:41:47 51°18.513 2°53.532 9.7 300 16.8 101050 88
2008-08-04 09:41:53 51°18.513 2°53.532 7.6 262 16.9 101050 88
2008-08-04 09:41:57 51°18.513 2°53.531 5.9 303 16.9 101050 88
2008-08-04 09:42:02 51°18.513 2°53.531 6.6 263 16.9 101050 88
2008-08-04 09:42:08 51°18.513 2°53.531 6.1 279 16.9 101050 88
2008-08-04 09:42:13 51°18.513 2°53.531 6.9 264 16.9 101050 88
2008-08-04 09:42:17 51°18.513 2°53.532 7.3 307 16.9 101050 88
2008-08-04 09:42:22 51°18.513 2°53.532 7.1 265 16.9 101050 88
2008-08-04 09:42:28 51°18.513 2°53.532 8.7 303 16.9 101050 88
2008-08-04 09:42:33 51°18.513 2°53.532 6.3 266 16.9 101050 88
2008-08-04 09:42:37 51°18.513 2°53.531 6.5 306 16.9 101050 88
2008-08-04 09:42:42 51°18.513 2°53.532 8.5 270 16.9 101060 88
2008-08-04 09:42:48 51°18.513 2°53.531 5.5 302 16.9 101060 88
2008-08-04 09:42:53 51°18.513 2°53.532 8.2 266 16.9 101050 88
2008-08-04 09:42:57 51°18.513 2°53.531 7.1 309 16.9 101050 88
2008-08-04 09:43:02 51°18.513 2°53.531 8.1 265 16.9 101050 88
2008-08-04 09:43:07 51°18.513 2°53.531 7.6 279 16.9 101050 88
2008-08-04 09:43:13 51°18.513 2°53.531 8.4 264 16.9 101050 88
2008-08-04 09:43:17 51°18.513 2°53.531 6.9 302 16.9 101050 88
2008-08-04 09:43:22 51°18.513 2°53.532 7.6 266 16.9 101060 88
2008-08-04 09:43:27 51°18.513 2°53.531 9.3 300 16.9 101060 88
2008-08-04 09:43:32 51°18.513 2°53.532 8.3 266 16.9 101050 87
2008-08-04 09:43:37 51°18.513 2°53.531 6.4 300 16.9 101050 87
2008-08-04 09:43:42 51°18.513 2°53.532 8.3 268 16.8 101050 87
2008-08-04 09:43:47 51°18.513 2°53.532 6.4 302 16.8 101050 87
2008-08-04 09:43:52 51°18.513 2°53.532 8.1 265 16.8 101050 87
2008-08-04 09:43:58 51°18.513 2°53.531 8.1 309 16.8 101050 87
2008-08-04 09:44:02 51°18.513 2°53.532 7.2 266 16.8 101050 87
2008-08-04 09:44:08 51°18.513 2°53.531 5.4 279 16.8 101050 87
2008-08-04 09:44:13 51°18.513 2°53.531 6.8 266 16.8 101060 87
2008-08-04 09:44:17 51°18.513 2°53.531 5.2 304 16.8 101060 87
2008-08-04 09:44:22 51°18.513 2°53.531 8.3 267 16.8 101050 87
2008-08-04 09:44:28 51°18.513 2°53.531 5.1 303 16.8 101050 87
2008-08-04 09:44:32 51°18.513 2°53.531 6.2 261 16.8 101060 88
2008-08-04 09:44:37 51°18.513 2°53.531 7.4 300 16.8 101060 88
2008-08-04 09:44:42 51°18.514 2°53.531 6.9 267 16.8 101050 87
2008-08-04 09:44:48 51°18.514 2°53.531 8.2 303 16.8 101050 87
2008-08-04 09:44:53 51°18.514 2°53.531 8.2 268 16.7 101060 87
2008-08-04 09:44:57 51°18.514 2°53.531 7.4 299 16.7 101060 87
2008-08-04 09:45:02 51°18.514 2°53.531 7 267 16.7 101050 87
2008-08-04 09:45:08 51°18.514 2°53.531 6.1 304 16.7 101050 87
2008-08-04 09:45:13 51°18.514 2°53.531 8.4 268 16.7 101060 87
2008-08-04 09:45:17 51°18.514 2°53.531 8.7 303 16.7 101060 87
2008-08-04 09:45:22 51°18.513 2°53.531 7.1 267 16.7 101050 86
2008-08-04 09:45:27 51°18.513 2°53.531 6.3 303 16.7 101050 86
2008-08-04 09:45:33 51°18.513 2°53.531 7.3 267 16.6 101060 86
2008-08-04 09:45:37 51°18.513 2°53.53 6.6 305 16.6 101060 86